createdAt,value
2022-08-11T00:02:36.086Z,3.60
2022-08-11T00:05:08.912Z,3.40
2022-08-11T00:07:43.725Z,3.00
2022-08-11T00:10:13.785Z,3.27
2022-08-11T00:12:42.742Z,3.67
2022-08-11T00:15:10.231Z,3.00
2022-08-11T00:17:37.685Z,3.13
2022-08-11T00:20:12.616Z,2.63
2022-08-11T00:22:44.969Z,3.17
2022-08-11T00:25:16.968Z,3.20
2022-08-11T00:27:43.881Z,3.07
2022-08-11T00:30:12.075Z,2.83
2022-08-11T00:32:42.267Z,2.80
2022-08-11T00:35:56.094Z,2.53
2022-08-11T00:38:03.366Z,2.67
2022-08-11T00:41:11.254Z,3.30
2022-08-11T00:43:46.891Z,3.20
2022-08-11T00:46:16.366Z,3.20
2022-08-11T00:49:00.369Z,3.17
2022-08-11T00:52:05.376Z,3.13
2022-08-11T00:54:44.989Z,3.40
2022-08-11T00:57:37.505Z,3.33
2022-08-11T01:00:20.629Z,3.33
2022-08-11T01:03:08.700Z,2.70
2022-08-11T01:06:01.943Z,3.60
2022-08-11T01:09:06.970Z,3.60
2022-08-11T01:11:55.501Z,3.60
2022-08-11T01:14:44.294Z,3.40
2022-08-11T01:17:58.900Z,3.40
2022-08-11T01:20:53.313Z,3.80
2022-08-11T01:23:50.972Z,3.47
2022-08-11T01:29:30.262Z,3.23
2022-08-11T01:32:46.639Z,3.47
2022-08-11T01:35:27.506Z,3.83
2022-08-11T01:38:31.588Z,3.33
2022-08-11T01:41:54.196Z,3.43
2022-08-11T01:44:38.733Z,3.80
2022-08-11T01:47:52.953Z,3.27
2022-08-11T01:50:32.091Z,3.77
2022-08-11T01:53:04.794Z,3.30
2022-08-11T01:55:44.868Z,4.00
2022-08-11T01:58:43.480Z,3.63
2022-08-11T02:01:20.449Z,3.17
2022-08-11T02:04:31.312Z,3.87
2022-08-11T02:07:17.005Z,3.80
2022-08-11T02:10:35.343Z,4.00
2022-08-11T02:13:36.900Z,3.40
2022-08-11T02:16:21.673Z,4.70
2022-08-11T02:19:19.093Z,3.77
2022-08-11T02:22:17.532Z,3.57
2022-08-11T02:25:05.954Z,4.47
2022-08-11T02:27:43.379Z,3.67
2022-08-11T02:30:14.561Z,4.30
2022-08-11T02:33:09.523Z,4.80
2022-08-11T02:35:50.275Z,4.60
2022-08-11T02:38:41.990Z,3.90
2022-08-11T02:42:04.796Z,4.13
2022-08-11T02:44:49.101Z,4.20
2022-08-11T02:48:03.799Z,3.83
2022-08-11T02:50:35.453Z,3.83
2022-08-11T02:53:30.362Z,4.03
2022-08-11T02:56:09.050Z,4.20
2022-08-11T02:58:44.155Z,3.87
2022-08-11T03:01:28.338Z,4.27
2022-08-11T03:04:08.696Z,4.07
2022-08-11T03:06:48.208Z,4.23
2022-08-11T03:09:24.546Z,4.37
2022-08-11T03:12:15.346Z,4.30
2022-08-11T03:15:28.288Z,5.07
2022-08-11T03:18:26.202Z,4.20
2022-08-11T03:21:24.419Z,4.97
2022-08-11T03:24:25.645Z,4.60
2022-08-11T03:27:01.258Z,4.63
2022-08-11T03:29:38.418Z,3.90
2022-08-11T03:32:21.669Z,4.30
2022-08-11T03:34:50.587Z,4.70
2022-08-11T03:37:38.629Z,4.80
2022-08-11T03:40:59.173Z,4.30
2022-08-11T03:44:07.750Z,4.60
2022-08-11T03:46:58.969Z,4.77
2022-08-11T03:50:02.149Z,4.70
2022-08-11T03:52:53.734Z,4.20
2022-08-11T03:55:21.918Z,4.70
2022-08-11T03:58:00.541Z,4.30
2022-08-11T04:00:48.530Z,4.70
2022-08-11T04:03:33.495Z,4.70
2022-08-11T04:06:36.190Z,4.80
2022-08-11T04:09:35.987Z,4.83
2022-08-11T04:12:35.832Z,4.63
2022-08-11T04:15:56.251Z,4.63
2022-08-11T04:18:50.729Z,5.27
2022-08-11T04:21:35.562Z,4.93
2022-08-11T04:24:37.953Z,4.57
2022-08-11T04:27:39.050Z,5.30
2022-08-11T04:30:33.929Z,5.40
2022-08-11T04:33:39.543Z,4.93
2022-08-11T04:36:09.507Z,4.70
2022-08-11T04:38:55.189Z,5.00
2022-08-11T04:42:12.688Z,4.77
2022-08-11T04:45:09.910Z,4.90
2022-08-11T04:48:15.361Z,4.40
2022-08-11T04:51:19.013Z,4.03
2022-08-11T04:54:26.374Z,4.93
2022-08-11T04:57:28.265Z,4.73
2022-08-11T05:00:24.255Z,4.50
2022-08-11T05:03:13.800Z,5.47
2022-08-11T05:06:01.734Z,5.40
2022-08-11T05:08:47.259Z,5.37
2022-08-11T05:11:34.850Z,4.90
2022-08-11T05:14:46.242Z,4.60
2022-08-11T05:17:36.348Z,5.17
2022-08-11T05:20:21.437Z,5.23
2022-08-11T05:23:09.410Z,5.27
2022-08-11T05:26:43.267Z,5.60
2022-08-11T05:29:20.090Z,5.33
2022-08-11T05:32:15.594Z,5.80
2022-08-11T05:34:53.436Z,5.43
2022-08-11T05:37:34.431Z,5.43
2022-08-11T05:40:31.682Z,5.67
2022-08-11T05:43:30.536Z,5.20
2022-08-11T05:46:20.500Z,4.70
2022-08-11T05:49:07.266Z,4.37
2022-08-11T05:52:05.691Z,4.77
2022-08-11T05:55:00.129Z,4.37
2022-08-11T05:57:49.403Z,5.00
2022-08-11T06:00:19.225Z,4.77
2022-08-11T06:02:59.092Z,5.10
2022-08-11T06:05:38.299Z,5.50
2022-08-11T06:08:10.452Z,3.97
2022-08-11T06:10:40.638Z,4.10
2022-08-11T06:13:08.409Z,4.30
2022-08-11T06:15:46.141Z,4.00
2022-08-11T06:18:13.898Z,4.60
2022-08-11T06:20:48.728Z,3.90
2022-08-11T06:23:18.726Z,3.70
2022-08-11T06:25:46.310Z,4.00
2022-08-11T06:28:20.400Z,4.33
2022-08-11T06:30:48.936Z,4.03
2022-08-11T06:33:30.394Z,4.30
2022-08-11T06:36:13.545Z,4.87
2022-08-11T06:38:52.000Z,4.83
2022-08-11T06:41:30.328Z,5.73
2022-08-11T06:44:13.086Z,5.17
2022-08-11T06:46:40.903Z,5.50
2022-08-11T06:49:29.816Z,4.93
2022-08-11T06:52:04.410Z,5.50
2022-08-11T06:54:35.166Z,4.53
2022-08-11T06:57:30.856Z,4.20
2022-08-11T07:00:17.934Z,4.27
2022-08-11T07:02:54.681Z,4.23
2022-08-11T07:05:47.219Z,4.20
2022-08-11T07:08:44.698Z,4.57
2022-08-11T07:11:54.227Z,4.40
2022-08-11T07:14:43.543Z,3.93
2022-08-11T07:17:17.379Z,4.00
2022-08-11T07:20:11.913Z,4.07
2022-08-11T07:22:58.334Z,4.20
2022-08-11T07:25:44.909Z,5.33
2022-08-11T07:28:36.601Z,4.13
2022-08-11T07:31:09.539Z,6.93
2022-08-11T07:34:08.269Z,4.20
2022-08-11T07:36:31.885Z,4.97
2022-08-11T07:38:59.346Z,6.10
2022-08-11T07:41:28.621Z,4.70
2022-08-11T07:44:09.084Z,4.80
2022-08-11T07:46:59.713Z,6.33
2022-08-11T07:49:48.018Z,4.10
2022-08-11T07:52:26.935Z,6.10
2022-08-11T07:55:02.535Z,5.10
2022-08-11T07:58:15.050Z,4.37
2022-08-11T08:01:01.933Z,5.40
2022-08-11T08:03:54.263Z,3.90
2022-08-11T08:06:42.036Z,3.70
2022-08-11T08:09:28.767Z,4.30
2022-08-11T08:12:15.545Z,3.90
2022-08-11T08:15:01.143Z,3.60
2022-08-11T08:18:09.953Z,4.80
2022-08-11T08:20:37.866Z,5.90
2022-08-11T08:23:05.754Z,7.73
2022-08-11T08:25:35.156Z,5.47
2022-08-11T08:28:06.160Z,5.20
2022-08-11T08:30:47.823Z,5.80
2022-08-11T08:33:18.532Z,4.70
2022-08-11T08:35:54.580Z,5.20
2022-08-11T08:38:22.938Z,5.73
2022-08-11T08:40:56.003Z,9.77
2022-08-11T08:43:24.091Z,11.30
2022-08-11T08:45:55.950Z,6.50
2022-08-11T08:48:25.710Z,4.03
2022-08-11T08:51:21.784Z,4.03
2022-08-11T08:53:54.467Z,5.70
2022-08-11T08:56:28.303Z,3.97
2022-08-11T08:58:57.626Z,4.17
2022-08-11T09:01:25.691Z,8.00
2022-08-11T09:04:05.385Z,5.70
2022-08-11T09:06:40.107Z,8.00
2022-08-11T09:09:12.173Z,5.03
2022-08-11T09:11:55.056Z,5.00
2022-08-11T09:14:53.850Z,4.10
2022-08-11T09:17:21.545Z,3.13
2022-08-11T09:20:01.523Z,3.90
2022-08-11T09:23:10.530Z,3.80
2022-08-11T09:25:56.085Z,3.30
2022-08-11T09:28:23.815Z,4.23
2022-08-11T09:30:55.155Z,3.20
2022-08-11T09:33:24.052Z,3.50
2022-08-11T09:35:52.653Z,5.90
2022-08-11T09:38:43.216Z,3.57
2022-08-11T09:41:14.151Z,3.90
2022-08-11T09:44:04.524Z,4.00
2022-08-11T09:46:33.154Z,3.73
2022-08-11T09:49:01.166Z,3.40
2022-08-11T09:51:32.297Z,3.23
2022-08-11T09:54:07.556Z,3.60
2022-08-11T09:56:53.461Z,3.37
2022-08-11T09:59:22.072Z,3.97
2022-08-11T10:01:55.117Z,4.90
2022-08-11T10:04:34.748Z,3.50
2022-08-11T10:07:06.883Z,3.27
2022-08-11T10:09:43.833Z,3.67
2022-08-11T10:12:14.747Z,3.90
2022-08-11T10:15:03.953Z,3.43
2022-08-11T10:17:39.403Z,3.47
2022-08-11T10:20:08.864Z,4.00
2022-08-11T10:22:54.786Z,3.20
2022-08-11T10:25:40.566Z,3.10
2022-08-11T10:28:30.648Z,3.03
2022-08-11T10:31:15.354Z,2.97
2022-08-11T10:34:00.255Z,3.30
2022-08-11T10:36:48.488Z,3.27
2022-08-11T10:39:18.421Z,3.23
2022-08-11T10:42:09.550Z,3.30
2022-08-11T10:44:50.673Z,3.30
2022-08-11T10:47:35.918Z,3.67
2022-08-11T10:50:22.050Z,3.30
2022-08-11T10:53:08.824Z,2.87
2022-08-11T10:55:58.362Z,3.10
2022-08-11T10:58:44.398Z,3.00
2022-08-11T11:01:12.271Z,2.93
2022-08-11T11:03:39.533Z,2.73
2022-08-11T11:06:28.346Z,2.80
2022-08-11T11:09:05.362Z,3.20
2022-08-11T11:11:57.370Z,3.20
2022-08-11T11:14:50.782Z,3.00
2022-08-11T11:17:47.829Z,3.33
2022-08-11T11:20:36.976Z,2.90
2022-08-11T11:23:06.732Z,2.60
2022-08-11T11:26:12.495Z,3.27
2022-08-11T11:29:13.158Z,2.97
2022-08-11T11:32:17.834Z,2.87
2022-08-11T11:35:02.789Z,3.10
2022-08-11T11:37:40.616Z,2.83
2022-08-11T11:40:28.694Z,3.00
2022-08-11T11:42:59.915Z,2.57
2022-08-11T11:45:26.513Z,3.07
2022-08-11T11:47:55.478Z,2.90
2022-08-11T11:50:31.713Z,3.10
2022-08-11T11:53:01.574Z,3.40
2022-08-11T11:55:29.463Z,3.30
2022-08-11T11:58:18.631Z,2.60
2022-08-11T12:01:05.578Z,3.13
2022-08-11T12:03:34.025Z,3.40
2022-08-11T12:06:00.920Z,3.13
2022-08-11T12:08:28.331Z,2.87
2022-08-11T12:11:21.902Z,3.20
2022-08-11T12:13:53.931Z,3.10
2022-08-11T12:16:34.190Z,3.17
2022-08-11T12:19:23.592Z,2.70
2022-08-11T12:22:10.203Z,3.50
2022-08-11T12:24:56.317Z,3.33
2022-08-11T12:27:25.538Z,2.70
2022-08-11T12:30:05.865Z,3.00
2022-08-11T12:32:35.116Z,3.10
2022-08-11T12:35:02.217Z,2.63
2022-08-11T12:37:35.074Z,3.73
2022-08-11T12:40:42.132Z,3.23
2022-08-11T12:43:38.199Z,2.83
2022-08-11T12:46:19.898Z,2.50
2022-08-11T12:49:08.180Z,3.27
2022-08-11T12:52:11.727Z,3.17
2022-08-11T12:54:49.679Z,3.03
2022-08-11T12:57:41.242Z,2.90
2022-08-11T13:00:27.876Z,3.23
2022-08-11T13:03:14.498Z,3.80
2022-08-11T13:05:46.241Z,3.03
2022-08-11T13:08:15.298Z,2.83
2022-08-11T13:11:02.119Z,3.37
2022-08-11T13:13:54.300Z,3.67
2022-08-11T13:16:17.643Z,3.70
2022-08-11T13:18:45.038Z,2.93
2022-08-11T13:21:20.040Z,2.77
2022-08-11T13:24:01.354Z,2.87
2022-08-11T13:26:41.629Z,3.43
2022-08-11T13:29:23.885Z,2.90
2022-08-11T13:31:52.496Z,3.33
2022-08-11T13:34:20.468Z,3.23
2022-08-11T13:36:52.033Z,3.10
2022-08-11T13:39:20.560Z,3.63
2022-08-11T13:41:48.560Z,2.80
2022-08-11T13:44:23.212Z,3.10
2022-08-11T13:46:53.920Z,3.00
2022-08-11T13:49:21.782Z,2.90
2022-08-11T13:51:49.284Z,2.90
2022-08-11T13:54:25.318Z,3.37
2022-08-11T13:56:56.958Z,3.17
2022-08-11T13:59:31.205Z,3.00
2022-08-11T14:02:21.524Z,3.37
2022-08-11T14:05:07.211Z,3.10
2022-08-11T14:07:40.068Z,3.13
2022-08-11T14:10:08.976Z,3.53
2022-08-11T14:12:56.205Z,3.23
2022-08-11T14:15:34.074Z,2.97
2022-08-11T14:18:18.140Z,3.03
2022-08-11T14:21:10.498Z,3.10
2022-08-11T14:23:46.719Z,2.53
2022-08-11T14:26:29.045Z,3.33
2022-08-11T14:29:02.066Z,3.20
2022-08-11T14:31:33.776Z,4.00
2022-08-11T14:34:06.510Z,3.27
2022-08-11T14:36:39.149Z,3.07
2022-08-11T14:39:12.899Z,2.80
2022-08-11T14:42:10.483Z,3.80
2022-08-11T14:45:04.633Z,3.70
2022-08-11T14:47:34.731Z,3.33
2022-08-11T14:50:10.292Z,3.40
2022-08-11T14:52:49.008Z,2.80
2022-08-11T14:55:35.322Z,3.13
2022-08-11T14:58:02.645Z,2.70
2022-08-11T15:00:30.242Z,2.97
2022-08-11T15:03:11.841Z,3.17
2022-08-11T15:05:56.054Z,3.23
2022-08-11T15:08:47.142Z,3.30
2022-08-11T15:11:34.621Z,2.80
2022-08-11T15:14:03.379Z,3.27
2022-08-11T15:16:48.950Z,2.87
2022-08-11T15:19:19.604Z,3.53
2022-08-11T15:22:04.758Z,2.87
2022-08-11T15:24:33.533Z,3.40
2022-08-11T15:27:22.509Z,2.90
2022-08-11T15:30:10.040Z,3.17
2022-08-11T15:33:04.641Z,2.90
2022-08-11T15:35:53.461Z,3.40
2022-08-11T15:38:22.044Z,2.83
2022-08-11T15:41:07.836Z,2.93
2022-08-11T15:44:15.148Z,2.40
2022-08-11T15:46:45.735Z,2.80
2022-08-11T15:49:22.266Z,2.30
2022-08-11T15:52:10.642Z,3.40
2022-08-11T15:54:46.351Z,2.87
2022-08-11T15:57:39.955Z,3.20
2022-08-11T16:00:26.580Z,2.87
2022-08-11T16:02:56.886Z,2.50
2022-08-11T16:05:46.118Z,2.70
2022-08-11T16:08:15.362Z,2.70
2022-08-11T16:10:44.076Z,2.97
2022-08-11T16:13:13.223Z,2.70
2022-08-11T16:16:09.058Z,3.20
2022-08-11T16:18:47.081Z,3.53
2022-08-11T16:21:26.244Z,3.03
2022-08-11T16:24:06.123Z,3.07
2022-08-11T16:27:11.200Z,2.83
2022-08-11T16:29:25.033Z,2.77
2022-08-11T16:32:11.592Z,2.77
2022-08-11T16:34:58.605Z,2.80
2022-08-11T16:37:45.642Z,3.13
2022-08-11T16:40:13.149Z,2.67
2022-08-11T16:43:09.965Z,3.10
2022-08-11T16:45:58.524Z,3.23
2022-08-11T16:48:37.278Z,3.30
2022-08-11T16:51:10.467Z,3.60
2022-08-11T16:53:46.108Z,3.40
2022-08-11T16:56:35.042Z,3.10
2022-08-11T16:59:16.535Z,3.40
2022-08-11T17:01:53.987Z,3.23
2022-08-11T17:05:04.300Z,3.50
2022-08-11T17:07:49.641Z,3.37
2022-08-11T17:10:52.732Z,2.93
2022-08-11T17:13:31.805Z,3.30
2022-08-11T17:16:10.875Z,3.70
2022-08-11T17:18:55.679Z,2.60
2022-08-11T17:21:26.645Z,2.90
2022-08-11T17:24:05.064Z,3.00
2022-08-11T17:26:58.604Z,3.30
2022-08-11T17:29:54.536Z,3.27
2022-08-11T17:32:56.730Z,3.03
2022-08-11T17:35:33.398Z,2.50
2022-08-11T17:38:17.901Z,3.10
2022-08-11T17:41:10.730Z,2.60
2022-08-11T17:44:09.257Z,2.80
2022-08-11T17:46:55.598Z,3.20
2022-08-11T17:49:23.594Z,3.40
2022-08-11T17:52:10.635Z,3.80
2022-08-11T17:54:58.184Z,2.67
2022-08-11T17:57:47.775Z,2.80
2022-08-11T18:00:15.574Z,2.97
2022-08-11T18:03:06.246Z,3.00
2022-08-11T18:05:37.084Z,2.80
2022-08-11T18:08:26.441Z,3.43
2022-08-11T18:11:17.456Z,3.47
2022-08-11T18:14:22.928Z,3.47
2022-08-11T18:17:07.699Z,2.83
2022-08-11T18:19:53.114Z,3.20
2022-08-11T18:22:48.576Z,3.07
2022-08-11T18:25:45.505Z,3.07
2022-08-11T18:28:33.516Z,3.47
2022-08-11T18:31:21.425Z,3.40
2022-08-11T18:34:14.752Z,3.10
2022-08-11T18:37:20.611Z,3.10
2022-08-11T18:40:15.226Z,2.70
2022-08-11T18:43:03.081Z,3.10
2022-08-11T18:45:52.760Z,3.13
2022-08-11T18:48:55.307Z,3.03
2022-08-11T18:51:42.735Z,3.20
2022-08-11T18:54:30.827Z,2.90
2022-08-11T18:57:20.749Z,3.30
2022-08-11T19:00:07.094Z,3.73
2022-08-11T19:02:55.691Z,3.20
2022-08-11T19:06:35.868Z,3.17
2022-08-11T19:08:53.515Z,3.53
2022-08-11T19:11:42.418Z,3.50
2022-08-11T19:14:30.576Z,3.20
2022-08-11T19:17:44.618Z,3.40
2022-08-11T19:20:30.116Z,3.13
2022-08-11T19:23:15.962Z,3.57
2022-08-11T19:26:02.708Z,3.70
2022-08-11T19:28:48.607Z,3.60
2022-08-11T19:31:34.157Z,3.60
2022-08-11T19:34:20.250Z,3.77
2022-08-11T19:37:06.615Z,3.83
2022-08-11T19:39:53.810Z,3.20
2022-08-11T19:42:40.286Z,3.60
2022-08-11T19:45:26.358Z,3.57
2022-08-11T19:48:31.138Z,3.23
2022-08-11T19:51:18.691Z,3.60
2022-08-11T19:54:06.469Z,3.33
2022-08-11T19:56:53.457Z,3.67
2022-08-11T19:59:41.796Z,4.10
2022-08-11T20:02:28.769Z,3.93
2022-08-11T20:05:13.753Z,3.67
2022-08-11T20:07:59.681Z,4.20
2022-08-11T20:10:47.152Z,4.30
2022-08-11T20:13:33.782Z,3.87
2022-08-11T20:16:21.261Z,3.43
2022-08-11T20:19:09.081Z,4.03
2022-08-11T20:21:56.389Z,3.87
2022-08-11T20:24:42.362Z,3.93
2022-08-11T20:27:29.348Z,3.90
2022-08-11T20:30:17.255Z,3.93
2022-08-11T20:33:03.325Z,4.10
2022-08-11T20:35:50.180Z,3.47
2022-08-11T20:38:37.004Z,3.67
2022-08-11T20:41:23.047Z,4.50
2022-08-11T20:44:10.322Z,4.30
2022-08-11T20:46:57.845Z,3.37
2022-08-11T20:49:53.606Z,4.20
2022-08-11T20:52:47.151Z,3.60
2022-08-11T20:55:46.346Z,3.43
2022-08-11T21:01:45.440Z,3.33
2022-08-11T21:04:31.258Z,4.17
2022-08-11T21:07:28.035Z,3.50
2022-08-11T21:10:23.307Z,4.27
2022-08-11T21:13:18.007Z,3.93
2022-08-11T21:16:16.350Z,4.00
2022-08-11T21:19:15.661Z,4.37
2022-08-11T21:22:03.746Z,3.73
2022-08-11T21:24:50.823Z,3.70
2022-08-11T21:27:38.908Z,4.10
2022-08-11T21:30:24.715Z,3.97
2022-08-11T21:33:11.349Z,4.10
2022-08-11T21:35:56.859Z,3.90
2022-08-11T21:38:42.625Z,4.30
2022-08-11T21:41:29.445Z,3.43
2022-08-11T21:44:16.252Z,3.53
2022-08-11T21:47:02.453Z,4.10
2022-08-11T21:49:49.790Z,4.20
2022-08-11T21:52:35.157Z,3.70
2022-08-11T21:55:21.195Z,4.97
2022-08-11T21:58:07.235Z,4.17
2022-08-11T22:00:52.545Z,4.50
2022-08-11T22:03:49.797Z,4.17
2022-08-11T22:06:36.808Z,4.57
2022-08-11T22:09:22.119Z,3.87
2022-08-11T22:12:34.301Z,4.07
2022-08-11T22:15:13.010Z,4.27
2022-08-11T22:17:58.428Z,4.07
2022-08-11T22:20:45.775Z,4.27
2022-08-11T22:23:36.348Z,4.00
2022-08-11T22:26:22.779Z,4.80
2022-08-11T22:29:08.239Z,3.87
2022-08-11T22:31:55.319Z,4.43
2022-08-11T22:34:52.790Z,3.50
2022-08-11T22:37:39.491Z,3.57
2022-08-11T22:40:26.028Z,3.93
2022-08-11T22:43:10.950Z,4.03
2022-08-11T22:45:56.361Z,4.60
2022-08-11T22:48:44.587Z,4.10
2022-08-11T22:51:31.402Z,3.90
2022-08-11T22:54:18.369Z,3.60
2022-08-11T22:57:03.468Z,3.93
2022-08-11T22:59:49.362Z,4.17
2022-08-11T23:02:34.916Z,4.03
2022-08-11T23:05:21.454Z,3.80
2022-08-11T23:08:07.041Z,4.00
2022-08-11T23:10:52.660Z,3.90
2022-08-11T23:13:40.209Z,4.30
2022-08-11T23:16:26.093Z,3.90
2022-08-11T23:19:13.258Z,3.60
2022-08-11T23:21:59.238Z,3.97
2022-08-11T23:24:44.953Z,4.40
2022-08-11T23:27:32.320Z,4.37
2022-08-11T23:30:19.678Z,4.67
2022-08-11T23:33:09.876Z,4.13
2022-08-11T23:36:02.294Z,4.10
2022-08-11T23:38:51.306Z,3.87
2022-08-11T23:41:36.833Z,4.23
2022-08-11T23:44:24.327Z,4.00
2022-08-11T23:47:13.872Z,3.70
2022-08-11T23:50:00.782Z,4.57
2022-08-11T23:52:47.761Z,3.80
2022-08-11T23:55:33.280Z,4.30
2022-08-11T23:58:18.729Z,4.23
